Flight Track Log - Related Links

Times and Time Zones

All times are in EST time to prevent confusion due to time zone crossing. See the UAL6008 flight status page for this flight to view local times or setup timezone preferences in your user account.

Time Position Orientation Groundspeed Altitude Reporting Facility
EST Latitude Longitude Course Direction KTS MPH feet Rate Location/Type
Sat 01:00:00 PM 42.2076 -88.2638 352° North  Level Estimated
Sat 01:01:00 PM 42.2644 -88.3533 345° North  Level Estimated
Sat 01:02:00 PM 42.3485 -88.3212 16° North  Level FlightAware Approximate
Sat 01:03:00 PM 42.4325 -88.2891 16° North  Level FlightAware Approximate
Sat 01:04:00 PM 42.4880 -88.3805 347° North  Level Estimated
Sat 01:05:00 PM 42.5748 -88.3672 North  Level FlightAware Approximate
Sat 01:06:00 PM 42.6615 -88.3539 North  Level FlightAware Approximate
Sat 01:07:00 PM 42.7483 -88.3405 North  Level FlightAware Approximate
Sat 01:08:00 PM 42.8017 -88.4347 292° West  Level Estimated
Sat 01:09:00 PM 42.8740 -88.5015 326° Northwest  Level FlightAware Approximate
Sat 01:10:00 PM 42.9463 -88.5684 326° Northwest  Level FlightAware Approximate
Sat 01:11:00 PM 43.0185 -88.6356 326° Northwest  Level FlightAware Approximate
Sat 01:12:00 PM 43.0907 -88.7028 326° Northwest  Level FlightAware Approximate
Sat 01:13:00 PM 43.1628 -88.7703 326° Northwest  Level FlightAware Approximate
Sat 01:14:00 PM 43.2145 -88.8669 295° West  Level Estimated
Sat 01:15:00 PM 43.2662 -88.9635 306° West  Level FlightAware Approximate
Sat 01:16:00 PM 43.3177 -89.0604 291° West  Level Estimated
Sat 01:17:00 PM 43.3559 -89.1684 296° West  Level FlightAware Approximate
Sat 01:18:00 PM 43.3941 -89.2765 296° West  Level FlightAware Approximate
Sat 01:19:00 PM 43.4456 -89.3736 289° West  Level Estimated
Sat 01:20:00 PM 43.4971 -89.4708 295° West  Level Estimated
Sat 01:21:00 PM 43.5484 -89.5682 285° West  Level Estimated
Sat 01:22:00 PM 43.5997 -89.6658 287° West  Level Estimated
Sat 01:23:00 PM 43.6109 -89.7854 277° West  Level FlightAware Approximate
Sat 01:24:00 PM 43.6219 -89.9051 277° West  Level FlightAware Approximate
Sat 01:25:00 PM 43.6739 -90.0021 286° West  Level Estimated
Sat 01:26:00 PM 43.6872 -90.1214 279° West  Level FlightAware Approximate
Sat 01:27:00 PM 43.7004 -90.2408 279° West  Level FlightAware Approximate
Sat 01:28:00 PM 43.7135 -90.3603 279° West  Level FlightAware Approximate
Sat 01:29:00 PM 43.7265 -90.4798 279° West  Level FlightAware Approximate
Sat 01:30:00 PM 43.7800 -90.5753 285° West  Level Estimated
Sat 01:31:00 PM 43.7965 -90.6941 281° West  Level FlightAware Approximate
Sat 01:32:00 PM 43.8128 -90.8130 281° West  Level FlightAware Approximate
Sat 01:33:00 PM 43.8289 -90.9319 281° West  Level FlightAware Approximate
Sat 01:34:00 PM 43.8450 -91.0509 281° West  Level FlightAware Approximate
Sat 01:35:00 PM 43.8609 -91.1700 281° West  Level FlightAware Approximate
Sat 01:36:00 PM 43.9166 -91.2634 313° West  Level Estimated
Sat 01:37:00 PM 43.9721 -91.3571 309° West  Level FlightAware Approximate
Sat 01:38:00 PM 44.0275 -91.4509 309° West  Level FlightAware Approximate
Sat 01:39:00 PM 44.0828 -91.5449 309° West  Level FlightAware Approximate
Sat 01:40:00 PM 44.1381 -91.6391 309° West  Level FlightAware Approximate
Sat 01:41:00 PM 44.1932 -91.7335 309° West  Level FlightAware Approximate
Sat 01:42:00 PM 44.2483 -91.8280 309° West  Level FlightAware Approximate
Sat 01:43:00 PM 44.3034 -91.9228 309° West  Level FlightAware Approximate
Sat 01:44:00 PM 44.3583 -92.0177 309° West  Level FlightAware Approximate
Sat 01:45:00 PM 44.4132 -92.1128 309° West  Level FlightAware Approximate
Sat 01:46:00 PM 44.4680 -92.2080 309° West  Level FlightAware Approximate
Sat 01:47:00 PM 44.5227 -92.3035 309° West  Level FlightAware Approximate
Sat 01:48:00 PM 44.5773 -92.3991 309° West  Level FlightAware Approximate
Sat 01:49:00 PM 44.6319 -92.4949 309° West  Level FlightAware Approximate
Sat 01:50:00 PM 44.6863 -92.5909 309° West  Level FlightAware Approximate
Sat 01:51:00 PM 44.7407 -92.6870 309° West  Level FlightAware Approximate
Sat 01:52:00 PM 44.7950 -92.7834 308° West  Level FlightAware Approximate
Sat 01:53:00 PM 44.8492 -92.8799 308° West  Level FlightAware Approximate
Sat 01:54:00 PM 44.9034 -92.9766 308° West  Level FlightAware Approximate
Sat 01:55:00 PM 44.9576 -93.0733 311° West  Level Estimated
Sat 01:56:00 PM 45.0142 -93.1674 310° West  Level FlightAware Approximate
Sat 01:57:00 PM 45.0682 -93.2645 305° West  Level Estimated
Sat 01:58:00 PM 45.1196 -93.3646 306° West  Level FlightAware Approximate
Sat 01:59:00 PM 45.1708 -93.4648 306° West  Level FlightAware Approximate
Sat 02:00:00 PM 45.2220 -93.5652 306° West  Level FlightAware Approximate
Sat 02:01:00 PM 45.2731 -93.6658 306° West  Level FlightAware Approximate
Sat 02:02:00 PM 45.3242 -93.7666 306° West  Level FlightAware Approximate
Sat 02:03:00 PM 45.3751 -93.8675 306° West  Level FlightAware Approximate
Sat 02:04:00 PM 45.4290 -93.9654 306° West  Level Estimated
Sat 02:05:00 PM 45.4829 -94.0634 304° West  Level Estimated
Sat 02:06:00 PM 45.5307 -94.1676 303° West  Level FlightAware Approximate
Sat 02:07:00 PM 45.5785 -94.2720 303° West  Level FlightAware Approximate
Sat 02:08:00 PM 45.6262 -94.3766 303° West  Level FlightAware Approximate
Sat 02:09:00 PM 45.6738 -94.4814 303° West  Level FlightAware Approximate
Sat 02:10:00 PM 45.7282 -94.5792 306° West  Level Estimated
Sat 02:11:00 PM 45.7825 -94.6773 304° West  Level Estimated
Sat 02:12:00 PM 45.8273 -94.7848 301° West  Level FlightAware Approximate
Sat 02:13:00 PM 45.8819 -94.8827 306° West  Level Estimated
Sat 02:14:00 PM 45.9364 -94.9808 300° West  Level Estimated
Sat 02:15:00 PM 45.9907 -95.0791 303° West  Level Estimated
Sat 02:16:00 PM 46.0315 -95.1903 298° West  Level FlightAware Approximate
Sat 02:17:00 PM 46.0721 -95.3017 298° West  Level FlightAware Approximate
Sat 02:18:00 PM 46.1278 -95.3987 304° West  Level Estimated
Sat 02:19:00 PM 46.1720 -95.5074 300° West  Level FlightAware Approximate
Sat 02:20:00 PM 46.2161 -95.6164 300° West  Level FlightAware Approximate
Sat 02:21:00 PM 46.2601 -95.7255 300° West  Level FlightAware Approximate
Sat 02:22:00 PM 46.3182 -95.8197 303° West  Level Estimated
Sat 02:23:00 PM 46.3763 -95.9142 270° West  Level Estimated
Sat 02:24:00 PM 46.4343 -96.0089 308° West  Level Estimated
Sat 02:25:00 PM 46.4923 -96.1038 270° West  Level Estimated
Sat 02:26:00 PM 46.5501 -96.1989 303° West  Level Estimated
Sat 02:27:00 PM 46.5765 -96.3200 288° West  Level FlightAware Approximate
Sat 02:28:00 PM 46.6388 -96.4090 301° West  Level Estimated
Sat 02:29:00 PM 46.6643 -96.5307 287° West  Level FlightAware Approximate
Sat 02:30:00 PM 46.7338 -96.6077 306° West  Level Estimated
Sat 02:31:00 PM 46.8033 -96.6849 North  Level Estimated
Sat 02:32:00 PM 46.8728 -96.7623 13° North  Level Estimated
Sat 02:33:00 PM 46.9167 -96.8000 13° North  Level FlightAware Approximate
Sat 02:34:00 PM 46.9207 -96.8158 13° North  Level Estimated
Sat 02:35:00 PM 46.9207 -96.8158 13° North  Level Estimated
Sat 02:36:00 PM 46.9207 -96.8158 13° North  Level Estimated
Sat 02:37:00 PM 46.9207 -96.8158 13° North  Level Estimated

Login

Don't have an account? Register now (free) for customized features, flight alerts, and more!